Latest Weather Observations for Cowra

IDN60801

Issued at 11:34 pm EDT Friday 19 December 2014 (issued every 30 minutes, with the page automatically refreshed every 10 minutes)

About weather observations | Map of weather stations | Latest weather observations for NSW | Other Formats
Station Details ID: 065111 Name: COWRA AIRPORT AWS Lat: -33.84 Lon: 148.65 Height: 296.5 m
Data from the previous 72 hours. | See also: Recent months at Cowra
Date/Time
EDT
Temp
°C
App
Temp
°C
Dew
Point
Rel
Hum
%
Delta-T
°C
Wind Press
QNH
hPa
Press
MSL
hPa
Rain
since 9 am
mm
Dir
 
Spd
km/h
Gust
km/h
Spd
kts
Gust
kts
19/11:30pm 17.5 14.2 -0.2 30 7.7 SSW 7 9 4 5 1016.5 - 0.0
19/11:00pm 16.2 12.9 0.3 34 6.9 SW 7 9 4 5 1016.6 - 0.0
19/10:30pm 16.4 13.0 -0.3 32 7.2 WSW 7 11 4 6 1016.4 - 0.0
19/10:00pm 17.3 13.9 -0.9 29 7.8 WSW 7 9 4 5 1016.0 - 0.0
19/09:30pm 20.0 16.1 -1.7 23 9.4 SSW 9 9 5 5 1015.5 - 0.0
19/09:00pm 20.9 17.0 -1.6 22 9.8 SSW 9 11 5 6 1015.3 1014.3 0.0
19/08:30pm 21.4 17.0 -2.5 20 10.3 SSW 11 15 6 8 1015.0 - 0.0
19/08:00pm 23.3 18.1 -3.1 17 11.5 SW 15 20 8 11 1014.6 - 0.0
19/07:30pm 24.6 17.6 -3.7 15 12.3 WSW 24 32 13 17 1014.2 - 0.0
19/07:00pm 25.4 18.8 -3.1 15 12.6 SW 22 33 12 18 1013.8 - 0.0
19/06:30pm 25.5 18.6 -3.0 15 12.6 WSW 24 32 13 17 1013.2 - 0.0
19/06:00pm 26.3 19.7 -3.3 14 13.1 SW 22 33 12 18 1013.0 1011.9 0.0
19/05:30pm 26.4 19.7 -4.2 13 13.4 SW 22 37 12 20 1012.7 - 0.0
19/05:00pm 26.6 19.8 -2.1 15 13.1 WSW 24 35 13 19 1012.7 - 0.0
19/04:30pm 27.1 21.1 -1.7 15 13.2 SW 20 39 11 21 1012.8 - 0.0
19/04:00pm 25.9 19.4 -2.7 15 12.8 SW 22 35 12 19 1013.0 - 0.0
19/03:30pm 25.9 19.7 -0.2 18 12.2 WSW 22 37 12 20 1013.1 - 0.0
19/03:00pm 26.4 21.3 0.9 19 12.2 W 17 33 9 18 1013.2 1012.2 0.0
19/02:30pm 24.8 17.7 -1.1 18 11.8 WSW 26 37 14 20 1013.5 - 0.0
19/02:00pm 25.5 18.5 -0.5 18 12.1 SW 26 35 14 19 1013.6 - 0.0
19/01:30pm 24.7 17.8 0.3 20 11.4 WSW 26 39 14 21 1013.8 - 0.0
19/01:00pm 23.9 17.5 0.9 22 10.8 SW 24 35 13 19 1013.9 - 0.0
19/12:30pm 23.6 18.3 3.0 26 10.1 SW 20 30 11 16 1014.3 - 0.0
19/12:00pm 22.9 17.4 0.7 23 10.3 WSW 19 30 10 16 1014.4 1013.4 0.0
19/11:30am 23.4 17.2 2.3 25 10.2 WSW 24 39 13 21 1014.4 - 0.0
19/11:00am 22.6 15.8 1.0 24 10.1 WSW 26 39 14 21 1014.4 - 0.0
19/10:30am 21.9 16.7 2.6 28 9.2 SW 19 30 10 16 1014.2 - 0.0
19/10:00am 21.0 14.4 2.3 29 8.9 SW 26 33 14 18 1014.3 - 0.0
19/09:30am 20.3 14.5 2.2 30 8.5 SSW 22 32 12 17 1014.2 - 0.0
19/09:00am 19.6 13.0 2.0 31 8.2 S 26 33 14 18 1014.1 1013.2 0.0
19/08:30am 19.0 14.0 3.6 36 7.4 SSW 19 30 10 16 1014.1 - 0.0
19/08:00am 17.9 13.5 4.8 42 6.4 SSW 17 26 9 14 1013.8 - 0.0
19/07:30am 17.4 14.4 6.0 47 5.7 SW 11 17 6 9 1013.5 - 0.0
19/07:00am 16.1 15.0 6.8 54 4.6 SW 2 9 1 5 1013.1 - 0.0
19/06:30am 13.8 11.2 5.9 59 3.8 SW 9 11 5 6 1012.9 - 0.0
19/06:00am 14.8 11.7 5.6 54 4.4 S 11 15 6 8 1012.5 1011.4 0.0
19/05:30am 14.8 12.0 5.1 52 4.6 S 9 11 5 6 1012.0 - 0.0
19/05:00am 16.5 13.4 5.5 48 5.4 S 11 17 6 9 1011.8 - 0.0
19/04:30am 16.6 14.5 5.9 49 5.3 SW 6 13 3 7 1011.4 - 0.0
19/04:00am 14.9 13.6 4.3 49 5.0 CALM 0 9 0 5 1011.2 - 0.0
19/03:30am 16.0 14.7 4.1 45 5.6 CALM 0 0 0 0 1011.1 - 0.0
19/03:00am 16.7 15.3 3.7 42 6.1 CALM 0 2 0 1 1010.8 1009.8 0.0
19/02:30am 18.2 14.7 3.7 38 6.9 SW 11 15 6 8 1010.5 - 0.0
19/02:00am 18.0 14.7 2.7 36 7.1 SW 9 13 5 7 1010.2 - 0.0
19/01:30am 19.8 15.5 3.1 33 8.0 SW 15 20 8 11 1009.8 - 0.0
19/01:00am 20.7 15.6 3.0 31 8.5 SW 19 26 10 14 1009.5 - 0.0
19/12:30am 21.5 15.5 3.2 30 8.8 SW 24 32 13 17 1009.5 - 0.0
19/12:00am 22.4 15.6 3.0 28 9.4 SW 28 41 15 22 1009.5 1008.4 0.0
 
Date/Time
EDT
Temp
°C
App
Temp
°C
Dew
Point
Rel
Hum
%
Delta-T
°C
Wind Press
QNH
hPa
Press
MSL
hPa
Rain
since 9 am
mm
Dir
 
Spd
km/h
Gust
km/h
Spd
kts
Gust
kts
18/11:30pm 23.1 16.9 2.0 25 10.1 SW 24 32 13 17 1009.3 - 0.0
18/11:00pm 22.4 16.8 0.9 24 10.0 WSW 20 24 11 13 1008.9 - 0.0
18/10:30pm 21.2 17.9 -0.1 24 9.6 WSW 7 11 4 6 1008.5 - 0.0
18/10:00pm 22.0 18.7 -1.3 21 10.4 SW 6 7 3 4 1008.3 - 0.0
18/09:30pm 24.0 20.7 -1.0 19 11.4 SW 6 7 3 4 1008.0 - 0.0
18/09:00pm 23.6 19.3 -1.3 19 11.3 WSW 11 15 6 8 1007.8 1006.8 0.0
18/08:30pm 25.2 20.4 -2.4 16 12.3 SW 13 17 7 9 1007.6 - 0.0
18/08:00pm 27.6 20.7 -2.3 14 13.7 WSW 24 32 13 17 1007.4 - 0.0
18/07:30pm 28.8 21.4 -3.4 12 14.6 WSW 26 41 14 22 1006.8 - 0.0
18/07:00pm 29.8 21.6 -3.8 11 15.2 WSW 30 37 16 20 1006.4 - 0.0
18/06:47pm 29.7 21.5 -3.9 11 15.2 W 30 48 16 26 1006.2 - 0.0
18/06:30pm 30.4 21.9 -3.3 11 15.5 WSW 32 44 17 24 1006.0 - 0.0
18/06:02pm 30.8 23.1 -3.0 11 15.6 W 28 46 15 25 1005.7 - 0.0
18/06:00pm 31.1 23.6 -1.6 12 15.6 W 28 43 15 23 1005.8 1004.6 0.0
18/05:30pm 30.3 22.7 -2.2 12 15.2 W 28 39 15 21 1005.8 - 0.0
18/05:06pm 31.0 23.3 -2.9 11 15.7 W 28 48 15 26 1005.7 - 0.0
18/05:00pm 31.1 24.9 -0.5 13 15.3 W 22 35 12 19 1005.8 - 0.0
18/04:47pm 31.2 23.1 -0.5 13 15.3 WSW 32 50 17 27 1005.7 - 0.0
18/04:30pm 31.1 23.7 -0.5 13 15.3 WSW 28 37 15 20 1005.8 - 0.0
18/04:00pm 31.4 23.8 0.7 14 15.2 WSW 30 41 16 22 1005.9 - 0.0
18/03:30pm 31.8 24.5 0.0 13 15.6 SW 28 41 15 22 1005.9 - 0.0
18/03:13pm 31.1 23.7 -0.5 13 15.3 W 28 46 15 25 1006.0 - 0.0
18/03:00pm 30.6 23.2 -0.9 13 15.1 W 28 41 15 22 1006.1 1005.0 0.0
18/02:37pm 31.5 24.2 -0.2 13 15.5 W 28 46 15 25 1006.0 - 0.0
18/02:30pm 31.3 25.5 -0.4 13 15.4 W 20 30 11 16 1006.1 - 0.0
18/02:00pm 30.1 25.6 -0.3 14 14.7 N 13 30 7 16 1006.2 - 0.0
18/01:30pm 30.3 24.1 -0.1 14 14.7 SSW 22 32 12 17 1006.5 - 0.0
18/01:00pm 29.9 25.5 0.5 15 14.3 WNW 13 26 7 14 1006.7 - 0.0
18/12:30pm 28.4 23.9 4.0 21 12.5 SW 17 24 9 13 1007.1 - 0.0
18/12:00pm 28.0 26.0 6.2 25 11.6 E 6 11 3 6 1007.5 1006.4 0.0
18/11:30am 27.1 24.1 6.0 26 11.1 SSW 11 19 6 10 1007.9 - 0.0
18/11:00am 26.0 23.7 5.6 27 10.6 WNW 7 11 4 6 1008.2 - 0.0
18/10:30am 24.9 22.8 6.6 31 9.6 NW 7 15 4 8 1008.3 - 0.0
18/10:00am 23.9 22.8 10.6 43 7.5 N 7 15 4 8 1008.6 - 0.0
18/09:30am 22.8 22.3 12.1 51 6.1 NNE 6 11 3 6 1008.9 - 0.0
18/09:00am 21.1 20.2 11.4 54 5.5 NE 7 11 4 6 1008.9 1007.9 0.0
18/08:30am 20.0 19.6 11.2 57 4.9 ESE 4 9 2 5 1009.1 - 0.0
18/08:00am 18.3 17.8 10.7 61 4.2 E 4 9 2 5 1009.1 - 0.0
18/07:30am 16.5 15.9 10.4 67 3.3 SE 4 7 2 4 1009.2 - 0.0
18/07:00am 12.8 12.1 8.7 76 2.1 NW 2 7 1 4 1009.4 - 0.0
18/06:30am 9.9 9.3 7.3 84 1.3 CALM 0 0 0 0 1008.6 - 0.0
18/06:00am 10.4 9.8 7.5 82 1.4 CALM 0 0 0 0 1008.0 1007.0 0.0
18/05:30am 12.2 11.3 7.9 75 2.1 SSE 2 6 1 3 1007.8 - 0.0
18/05:00am 13.7 11.9 9.4 75 2.2 SSE 9 11 5 6 1007.4 - 0.0
18/04:30am 12.2 9.7 8.3 77 2.0 S 11 13 6 7 1007.2 - 0.0
18/04:00am 11.2 9.1 5.7 69 2.6 SSW 6 7 3 4 1007.2 - 0.0
18/03:30am 13.5 11.5 7.3 66 3.1 SSE 7 9 4 5 1006.9 - 0.0
18/03:00am 14.6 12.7 7.4 62 3.6 SSE 7 9 4 5 1007.0 1005.9 0.0
18/02:30am 14.7 11.9 7.0 60 3.8 SSE 11 13 6 7 1006.9 - 0.0
18/02:00am 13.0 9.7 2.3 48 4.7 S 9 13 5 7 1007.1 - 0.0
18/01:30am 14.7 11.1 0.9 39 6.0 SE 9 11 5 6 1007.0 - 0.0
18/01:00am 15.0 11.7 2.2 42 5.8 SE 9 13 5 7 1007.0 - 0.0
18/12:30am 14.3 11.6 2.9 46 5.2 S 6 9 3 5 1007.2 - 0.0
18/12:00am 14.4 12.7 1.7 42 5.6 CALM 0 0 0 0 1007.4 1006.3 0.0
 
Date/Time
EDT
Temp
°C
App
Temp
°C
Dew
Point
Rel
Hum
%
Delta-T
°C
Wind Press
QNH
hPa
Press
MSL
hPa
Rain
since 9 am
mm
Dir
 
Spd
km/h
Gust
km/h
Spd
kts
Gust
kts
17/11:30pm 18.5 14.8 -0.3 28 8.3 E 9 11 5 6 1007.3 - 0.0
17/11:00pm 17.7 14.4 -1.0 28 8.1 SE 6 11 3 6 1007.4 - 0.0
17/10:30pm 19.0 16.7 0.1 28 8.4 ENE 2 13 1 7 1007.3 - 0.0
17/10:00pm 20.0 16.0 -2.3 22 9.6 NNE 9 11 5 6 1007.3 - 0.0
17/09:30pm 20.0 16.9 -3.0 21 9.7 NW 4 11 2 6 1007.1 - 0.0
17/09:00pm 21.3 17.3 -1.9 21 10.2 WNW 9 9 5 5 1006.8 1005.7 0.0
17/08:30pm 22.8 19.4 -5.2 15 11.6 WSW 4 6 2 3 1006.5 - 0.0
17/08:00pm 26.0 21.4 -4.5 13 13.2 S 11 13 6 7 1005.9 - 0.0
17/07:30pm 27.6 21.8 -4.3 12 14.1 SSW 17 20 9 11 1005.8 - 0.0
17/07:00pm 28.3 22.2 -3.8 12 14.4 SSW 19 24 10 13 1005.2 - 0.0
17/06:30pm 28.1 22.8 -3.9 12 14.3 SSW 15 24 8 13 1005.0 - 0.0
17/06:00pm 29.1 24.2 -3.2 12 14.8 SW 13 20 7 11 1004.7 1003.6 0.0
17/05:30pm 29.7 25.8 -1.6 13 14.7 S 9 20 5 11 1004.8 - 0.0
17/05:00pm 29.4 25.3 -2.9 12 14.8 SSE 9 17 5 9 1004.7 - 0.0
17/04:30pm 29.1 25.7 -2.1 13 14.5 E 6 17 3 9 1004.9 - 0.0
17/04:00pm 28.7 23.8 -3.5 12 14.5 SSW 13 20 7 11 1005.2 - 0.0
17/03:30pm 28.7 25.2 -1.4 14 14.1 SW 7 17 4 9 1005.7 - 0.0
17/03:00pm 27.7 24.1 -2.2 14 13.7 N 7 15 4 8 1005.8 1004.7 0.0
17/02:30pm 27.3 22.8 -3.5 13 13.7 ESE 11 15 6 8 1006.1 - 0.0
17/02:00pm 26.4 22.4 -2.3 15 13.0 WNW 9 15 5 8 1006.4 - 0.0
17/01:30pm 26.5 22.2 -1.3 16 12.8 SW 11 26 6 14 1006.5 - 0.0
17/01:00pm 25.8 20.7 -1.9 16 12.6 W 15 33 8 18 1006.6 - 0.0
17/12:30pm 24.3 20.3 -2.3 17 11.8 W 9 15 5 8 1006.9 - 0.0
17/12:00pm 24.1 19.0 -1.7 18 11.6 SSW 15 28 8 15 1007.1 1006.0 0.0
17/11:30am 22.8 17.5 -3.5 17 11.3 SW 15 26 8 14 1007.2 - 0.0
17/11:00am 22.5 18.0 -3.0 18 11.0 S 11 22 6 12 1007.4 - 0.0
17/10:30am 21.8 18.6 -0.2 23 10.0 S 6 17 3 9 1007.6 - 0.0
17/10:00am 21.3 17.1 1.6 27 9.2 SW 13 22 7 12 1007.6 - 0.0
17/09:30am 20.5 15.7 0.4 26 9.1 SSW 15 22 8 12 1007.6 - 0.0
17/09:00am 19.9 14.4 0.4 27 8.8 SSW 19 26 10 14 1007.5 1006.4 0.0
17/08:30am 19.0 13.1 1.5 31 8.0 SSW 22 28 12 15 1007.4 - 0.0
17/08:00am 18.7 13.4 2.9 35 7.4 SSW 20 24 11 13 1007.3 - 0.0
17/07:30am 17.9 13.0 5.2 43 6.2 WSW 20 26 11 14 1006.9 - 0.0
17/07:00am 17.3 12.7 5.6 46 5.8 WSW 19 22 10 12 1006.5 - 0.0
17/06:30am 16.7 13.5 5.3 47 5.5 SW 11 15 6 8 1006.1 - 0.0
17/06:00am 15.2 11.9 6.2 55 4.4 WSW 13 17 7 9 1005.6 1004.5 0.0
17/05:30am 16.4 13.3 5.7 49 5.2 SW 11 13 6 7 1005.2 - 0.0
17/05:00am 17.8 14.4 5.7 45 6.0 SW 13 17 7 9 1004.6 - 0.0
17/04:30am 18.5 14.8 6.4 45 6.1 SW 15 20 8 11 1004.0 - 0.0
17/04:00am 19.2 14.8 6.7 44 6.4 SSW 19 24 10 13 1004.0 - 0.0
17/03:30am 20.1 17.0 7.1 43 6.7 SSW 13 22 7 12 1003.9 - 0.0
17/03:26am 20.2 16.7 7.2 43 6.7 S 15 30 8 16 1003.7 - 0.0
17/03:00am 20.9 12.6 7.9 43 6.9 SW 41 54 22 29 1002.4 1001.3 0.0
17/02:30am 21.6 14.1 8.1 42 7.2 SW 37 50 20 27 1002.4 - 0.0
17/02:00am 22.4 17.0 8.1 40 7.6 SW 26 33 14 18 1001.9 - 0.0
17/01:52am 22.8 16.0 7.8 38 8.0 SSW 33 56 18 30 1001.4 - 0.0
17/01:39am 23.6 15.6 7.3 35 8.6 WSW 39 57 21 31 1001.9 - 0.0
17/01:30am 24.1 17.1 5.9 31 9.4 WSW 32 41 17 22 1001.1 - 0.0
17/01:00am 25.0 20.4 5.7 29 10.0 WSW 19 24 10 13 1001.2 - 0.0
17/12:30am 22.2 18.4 7.6 39 7.7 NNW 17 20 9 11 1000.8 - 0.0
17/12:00am 26.2 21.9 6.8 29 10.4 SW 19 26 10 14 1000.6 999.4 0.0

Other Formats:

Comma delimited format used in spreadsheet applications
http://www.bom.gov.au/fwo/IDN60801/IDN60801.95721.axf

JavaScript Object Notation format (JSON) in row-major order
http://www.bom.gov.au/fwo/IDN60801/IDN60801.95721.json